Time;durP1;ratioP1;P1;durP2;ratioP2;P2;SDS_P1;SDS_P2;PMS_P1;PMS_P2;Temp;Humidity;BMP_temperature;BMP_pressure;BME280_temperature;BME280_humidity;BME280_pressure;Samples;Min_cycle;Max_cycle;Signal;HPM_P1;HPM_P2
2024/01/28 00:00:19;;;;;;;0.38;0.38;;;3.10;87.80;;;;;;4969633;28;20061;-72
2024/01/28 00:02:45;;;;;;;0.00;0.00;;;3.10;87.80;;;;;;4968315;28;20542;-72
2024/01/28 00:05:13;;;;;;;0.10;0.10;;;3.10;87.80;;;;;;4969697;28;20043;-71
2024/01/28 00:07:39;;;;;;;0.03;0.03;;;3.10;87.80;;;;;;4970064;28;20043;-71
2024/01/28 00:10:06;;;;;;;0.00;0.00;;;3.10;87.80;;;;;;4970277;28;20042;-72
2024/01/28 00:12:32;;;;;;;0.00;0.00;;;3.00;87.70;;;;;;4970044;28;20061;-72
2024/01/28 00:14:58;;;;;;;0.00;0.00;;;3.10;87.80;;;;;;4992176;28;20051;-72
2024/01/28 00:17:24;;;;;;;0.00;0.00;;;3.10;87.80;;;;;;4969376;28;20103;-72
2024/01/28 00:19:50;;;;;;;0.00;0.00;;;3.10;87.90;;;;;;4969215;28;20065;-72
2024/01/28 00:22:16;;;;;;;0.00;0.00;;;3.10;87.90;;;;;;4967873;28;20171;-71
2024/01/28 00:24:41;;;;;;;0.00;0.00;;;3.10;87.80;;;;;;4968285;28;20090;-72
2024/01/28 00:27:07;;;;;;;0.00;0.00;;;3.10;87.80;;;;;;4978696;28;20412;-72
2024/01/28 00:36:56;;;;;;;0.00;0.00;;;3.10;87.80;;;;;;4969731;28;20037;-72
2024/01/28 00:39:43;;;;;;;0.10;0.10;;;3.10;87.80;;;;;;4969032;28;20054;-72
2024/01/28 00:42:42;;;;;;;0.10;0.10;;;3.10;87.70;;;;;;4970450;28;20046;-72
2024/01/28 00:45:20;;;;;;;0.10;0.10;;;3.10;87.90;;;;;;4968045;28;20062;-72
2024/01/28 00:48:17;;;;;;;0.10;0.10;;;3.00;87.90;;;;;;4968014;28;20046;-72
2024/01/28 00:50:52;;;;;;;0.13;0.13;;;3.10;87.90;;;;;;4969499;28;20054;-72
2024/01/28 00:53:18;;;;;;;0.03;0.03;;;3.00;87.80;;;;;;4965299;28;20051;-72
2024/01/28 00:55:44;;;;;;;0.00;0.00;;;3.00;87.80;;;;;;4968730;28;20938;-72
2024/01/28 00:58:09;;;;;;;0.32;0.32;;;3.00;87.90;;;;;;4968280;28;20121;-72
2024/01/28 01:00:35;;;;;;;0.95;0.95;;;3.00;87.90;;;;;;4970060;28;20135;-72
2024/01/28 01:03:01;;;;;;;1.08;0.17;;;3.10;87.90;;;;;;4969425;28;20054;-72
2024/01/28 01:05:26;;;;;;;0.00;0.00;;;3.10;87.90;;;;;;4968340;28;20057;-72
2024/01/28 01:07:52;;;;;;;0.08;0.08;;;3.00;87.80;;;;;;4965203;28;20043;-72
2024/01/28 01:10:20;;;;;;;0.00;0.00;;;3.10;87.90;;;;;;4969576;28;20042;-72
2024/01/28 01:12:45;;;;;;;0.00;0.00;;;3.10;87.90;;;;;;4967474;28;20090;-72
2024/01/28 01:15:11;;;;;;;0.00;0.00;;;3.10;87.90;;;;;;4968722;28;20093;-72
2024/01/28 01:17:36;;;;;;;0.88;0.88;;;3.10;87.80;;;;;;4967476;28;20050;-72
2024/01/28 01:20:02;;;;;;;0.00;0.00;;;3.00;87.70;;;;;;4968268;28;20038;-71
2024/01/28 01:22:28;;;;;;;0.00;0.00;;;3.00;87.80;;;;;;4967719;28;20069;-72
2024/01/28 01:24:54;;;;;;;0.10;0.10;;;3.10;87.80;;;;;;4968041;28;20047;-71
2024/01/28 01:27:19;;;;;;;0.05;0.05;;;3.10;87.80;;;;;;4968403;28;20061;-71
2024/01/28 01:29:45;;;;;;;0.00;0.00;;;3.10;87.80;;;;;;4968396;28;20055;-72
2024/01/28 01:32:11;;;;;;;0.08;0.08;;;3.10;87.80;;;;;;4967717;28;20154;-72
2024/01/28 01:34:37;;;;;;;0.00;0.00;;;3.10;87.80;;;;;;4967495;28;20518;-72
2024/01/28 01:37:03;;;;;;;0.00;0.00;;;3.10;87.70;;;;;;4967680;28;20038;-72
2024/01/28 01:39:29;;;;;;;0.10;0.10;;;3.20;87.80;;;;;;4970064;28;20057;-72
2024/01/28 01:41:55;;;;;;;1.73;0.80;;;3.20;87.70;;;;;;4969322;28;20051;-72
2024/01/28 01:44:20;;;;;;;0.10;0.10;;;3.20;87.70;;;;;;4967234;28;20078;-72
2024/01/28 01:46:47;;;;;;;2.90;2.08;;;3.20;87.60;;;;;;4950545;28;20051;-72
2024/01/28 01:49:13;;;;;;;0.00;0.00;;;3.20;87.60;;;;;;4950156;28;20055;-72
2024/01/28 01:51:39;;;;;;;0.00;0.00;;;3.20;87.60;;;;;;4949492;28;20055;-72
2024/01/28 01:54:06;;;;;;;0.00;0.00;;;3.20;87.70;;;;;;4951643;28;20150;-72
2024/01/28 01:56:34;;;;;;;0.00;0.00;;;3.20;87.70;;;;;;4949946;28;20047;-72
2024/01/28 01:59:00;;;;;;;0.00;0.00;;;3.10;87.20;;;;;;4949567;28;20594;-72
2024/01/28 02:01:27;;;;;;;0.00;0.00;;;3.10;87.60;;;;;;4949880;28;20058;-71
2024/01/28 02:03:55;;;;;;;0.03;0.03;;;3.10;87.60;;;;;;4948794;28;20154;-72
2024/01/28 02:06:21;;;;;;;0.20;0.20;;;3.10;87.50;;;;;;4963765;28;20520;-72
2024/01/28 02:08:47;;;;;;;0.10;0.10;;;3.10;87.70;;;;;;4969057;28;20105;-72
2024/01/28 02:11:13;;;;;;;0.00;0.00;;;3.10;87.70;;;;;;4967261;28;20050;-72
2024/01/28 02:13:38;;;;;;;0.00;0.00;;;3.10;87.70;;;;;;4967583;28;20199;-71
2024/01/28 02:16:04;;;;;;;0.10;0.10;;;3.10;87.70;;;;;;4968524;28;20054;-72
2024/01/28 02:18:30;;;;;;;0.10;0.10;;;3.10;87.80;;;;;;4968284;28;21099;-72
2024/01/28 02:20:56;;;;;;;0.08;0.08;;;3.10;87.70;;;;;;4967415;28;20074;-72
2024/01/28 02:23:21;;;;;;;0.10;0.10;;;3.00;87.60;;;;;;4968086;28;20084;-72
2024/01/28 02:25:50;;;;;;;0.10;0.10;;;3.00;87.50;;;;;;4973446;28;20051;-72
2024/01/28 02:28:16;;;;;;;0.32;0.32;;;3.00;87.70;;;;;;4968519;28;20516;-72
2024/01/28 02:34:04;;;;;;;0.00;0.00;;;2.90;87.70;;;;;;4967237;28;20066;-72
2024/01/28 02:36:31;;;;;;;0.00;0.00;;;3.00;87.70;;;;;;4968521;28;20046;-72
2024/01/28 02:38:58;;;;;;;0.05;0.05;;;3.00;87.80;;;;;;4987917;28;20038;-72
2024/01/28 02:41:24;;;;;;;0.10;0.10;;;3.10;87.80;;;;;;4988051;28;20061;-72
2024/01/28 02:43:50;;;;;;;0.25;0.25;;;3.10;87.80;;;;;;4988030;28;20129;-72
2024/01/28 02:46:16;;;;;;;0.00;0.00;;;3.10;87.80;;;;;;4976470;28;20049;-72
2024/01/28 02:48:41;;;;;;;0.10;0.10;;;3.10;87.70;;;;;;4949257;28;20126;-72
2024/01/28 02:51:07;;;;;;;0.10;0.10;;;3.10;87.70;;;;;;4956261;28;20051;-72
2024/01/28 02:53:33;;;;;;;0.00;0.00;;;3.20;87.70;;;;;;4955707;28;20094;-72
2024/01/28 02:56:00;;;;;;;0.10;0.10;;;3.20;87.50;;;;;;4959209;28;20054;-72
2024/01/28 02:58:30;;;;;;;0.00;0.00;;;3.20;87.60;;;;;;4975340;28;20073;-72
2024/01/28 03:00:56;;;;;;;0.13;0.13;;;3.20;87.50;;;;;;4975108;28;20701;-72
2024/01/28 03:03:22;;;;;;;0.00;0.00;;;3.20;87.50;;;;;;4975495;28;20035;-72
2024/01/28 03:05:47;;;;;;;0.00;0.00;;;3.20;87.40;;;;;;4973306;28;20080;-71
2024/01/28 03:08:13;;;;;;;0.10;0.10;;;3.20;87.40;;;;;;4986693;28;20054;-72
2024/01/28 03:10:39;;;;;;;0.03;0.03;;;3.30;87.30;;;;;;4995299;28;20050;-72
2024/01/28 03:13:05;;;;;;;0.00;0.00;;;3.20;87.30;;;;;;4975333;28;20051;-72
2024/01/28 03:15:31;;;;;;;1.00;0.80;;;3.20;87.10;;;;;;4954687;28;20050;-72
2024/01/28 03:17:57;;;;;;;0.00;0.00;;;3.10;87.10;;;;;;4973585;28;20054;-72
2024/01/28 03:20:25;;;;;;;0.00;0.00;;;3.10;87.10;;;;;;4973895;28;20054;-72
2024/01/28 03:22:51;;;;;;;0.95;0.95;;;3.10;87.00;;;;;;4974140;28;20053;-72
2024/01/28 03:28:52;;;;;;;2.75;0.85;;;3.00;87.00;;;;;;4969842;28;20117;-72
2024/01/28 03:31:18;;;;;;;0.10;0.10;;;3.00;87.20;;;;;;4973285;28;20043;-72
2024/01/28 03:33:44;;;;;;;0.00;0.00;;;2.90;87.10;;;;;;4973062;28;20498;-72
2024/01/28 03:36:13;;;;;;;0.00;0.00;;;2.90;87.20;;;;;;4963708;28;20503;-72
2024/01/28 03:38:40;;;;;;;0.10;0.10;;;2.80;87.20;;;;;;4988483;28;20097;-72
2024/01/28 03:41:05;;;;;;;0.20;0.20;;;2.70;87.20;;;;;;4994025;28;20038;-72
2024/01/28 03:43:31;;;;;;;0.13;0.13;;;2.80;87.30;;;;;;4993305;28;20060;-72
2024/01/28 03:45:57;;;;;;;0.00;0.00;;;2.70;87.30;;;;;;4994025;28;20050;-72
2024/01/28 03:48:22;;;;;;;0.00;0.00;;;2.80;87.30;;;;;;4970685;28;20047;-72
2024/01/28 03:50:48;;;;;;;0.10;0.10;;;2.80;87.40;;;;;;4970566;28;20050;-72
2024/01/28 03:53:14;;;;;;;0.20;0.20;;;2.80;87.40;;;;;;4974519;28;20396;-72
2024/01/28 03:55:40;;;;;;;0.70;0.63;;;2.80;87.30;;;;;;4973953;28;20476;-72
2024/01/28 03:58:05;;;;;;;0.00;0.00;;;2.80;87.30;;;;;;4962810;28;20525;-72
2024/01/28 04:00:31;;;;;;;0.00;0.00;;;2.70;87.40;;;;;;4952102;28;20047;-72
2024/01/28 04:02:57;;;;;;;0.00;0.00;;;2.70;87.30;;;;;;4950054;28;20043;-72
2024/01/28 04:05:23;;;;;;;0.30;0.30;;;2.70;87.40;;;;;;4952397;28;20417;-72
2024/01/28 04:07:49;;;;;;;0.00;0.00;;;2.70;87.20;;;;;;4957514;28;20054;-72
2024/01/28 04:10:18;;;;;;;1.65;1.08;;;2.70;87.20;;;;;;4950279;28;20492;-72
2024/01/28 04:12:44;;;;;;;0.10;0.10;;;2.70;87.10;;;;;;4951964;28;20067;-72
2024/01/28 04:15:10;;;;;;;0.10;0.10;;;2.70;87.10;;;;;;4952149;28;20393;-72
2024/01/28 04:17:35;;;;;;;0.20;0.20;;;2.60;87.00;;;;;;4951648;28;20072;-72
2024/01/28 04:20:03;;;;;;;0.25;0.25;;;2.60;87.10;;;;;;4952187;28;20115;-72
2024/01/28 04:22:30;;;;;;;0.05;0.05;;;2.60;87.10;;;;;;4959907;28;20534;-72
2024/01/28 04:24:55;;;;;;;0.20;0.20;;;2.70;87.20;;;;;;4971428;28;20047;-72
2024/01/28 04:27:21;;;;;;;0.10;0.10;;;2.60;87.10;;;;;;4970017;28;20105;-72
2024/01/28 04:29:47;;;;;;;0.00;0.00;;;2.60;87.20;;;;;;4971365;28;20054;-72
2024/01/28 04:32:14;;;;;;;0.00;0.00;;;2.70;87.20;;;;;;4971213;28;20130;-72
2024/01/28 04:34:40;;;;;;;0.00;0.00;;;2.60;87.20;;;;;;4972288;28;20087;-72
2024/01/28 04:37:06;;;;;;;0.00;0.00;;;2.60;87.30;;;;;;4971603;28;20108;-72
2024/01/28 04:39:34;;;;;;;0.00;0.00;;;2.60;87.20;;;;;;4951119;28;20162;-72
2024/01/28 04:42:01;;;;;;;0.10;0.10;;;2.60;87.30;;;;;;4951067;28;20050;-72
2024/01/28 04:44:26;;;;;;;0.10;0.10;;;2.60;87.20;;;;;;4951921;28;20051;-72
2024/01/28 04:46:52;;;;;;;0.38;0.38;;;2.60;87.20;;;;;;4982071;28;20050;-72
2024/01/28 04:49:19;;;;;;;0.10;0.10;;;2.50;86.90;;;;;;4953490;28;20179;-72
2024/01/28 04:51:45;;;;;;;0.75;0.75;;;2.40;86.90;;;;;;4952076;28;20047;-71
2024/01/28 04:54:12;;;;;;;0.10;0.10;;;2.40;86.90;;;;;;4951961;28;20057;-72
2024/01/28 04:56:38;;;;;;;0.00;0.00;;;2.40;86.90;;;;;;4950809;28;20082;-72
2024/01/28 04:59:04;;;;;;;0.00;0.00;;;2.40;87.10;;;;;;4970673;28;20586;-72
2024/01/28 05:01:30;;;;;;;0.00;0.00;;;2.40;87.20;;;;;;4969141;28;20057;-72
2024/01/28 05:03:55;;;;;;;0.10;0.10;;;2.40;87.10;;;;;;4970620;28;20580;-72
2024/01/28 05:06:21;;;;;;;0.00;0.00;;;2.40;87.20;;;;;;4970460;28;20047;-72
2024/01/28 05:08:47;;;;;;;0.10;0.10;;;2.30;87.10;;;;;;4974046;28;20660;-72
2024/01/28 05:11:12;;;;;;;0.10;0.10;;;2.30;87.10;;;;;;4979121;28;20069;-72
2024/01/28 05:13:38;;;;;;;0.10;0.10;;;2.30;87.00;;;;;;4970310;28;20063;-72
2024/01/28 05:16:04;;;;;;;0.00;0.00;;;2.30;87.10;;;;;;4970361;28;20042;-72
2024/01/28 05:18:30;;;;;;;0.60;0.45;;;2.30;87.10;;;;;;4970368;28;20134;-72
2024/01/28 05:20:55;;;;;;;0.00;0.00;;;2.30;86.90;;;;;;4969789;28;20042;-71
2024/01/28 05:23:21;;;;;;;0.13;0.13;;;2.20;87.00;;;;;;4969396;28;20148;-72
2024/01/28 05:25:47;;;;;;;0.10;0.10;;;2.20;87.10;;;;;;4970417;28;20058;-72
2024/01/28 05:29:05;;;;;;;0.10;0.10;;;2.30;87.10;;;;;;4970760;28;20246;-71
2024/01/28 05:31:34;;;;;;;0.00;0.00;;;2.30;87.20;;;;;;4960839;28;20052;-71
2024/01/28 05:34:01;;;;;;;0.43;0.43;;;2.40;87.20;;;;;;4964347;28;20050;-72
2024/01/28 05:36:27;;;;;;;0.05;0.05;;;2.40;87.20;;;;;;4968941;28;20082;-72
2024/01/28 05:38:54;;;;;;;8.40;1.13;;;2.40;87.20;;;;;;4958540;28;20070;-72
2024/01/28 05:41:20;;;;;;;0.00;0.00;;;2.40;87.00;;;;;;4981319;28;20054;-72
2024/01/28 05:43:46;;;;;;;0.00;0.00;;;2.40;86.80;;;;;;4970263;28;20109;-72
2024/01/28 05:46:12;;;;;;;0.10;0.10;;;2.40;86.90;;;;;;4970208;28;20046;-72
2024/01/28 05:48:37;;;;;;;0.10;0.10;;;2.40;87.00;;;;;;4969326;28;20114;-72
2024/01/28 05:51:03;;;;;;;0.30;0.30;;;2.50;86.90;;;;;;4968336;28;20477;-72
2024/01/28 05:53:29;;;;;;;0.00;0.00;;;2.40;86.70;;;;;;4969069;28;20113;-71
2024/01/28 05:55:55;;;;;;;0.00;0.00;;;2.40;86.80;;;;;;4970584;28;20105;-72
2024/01/28 05:58:22;;;;;;;0.20;0.20;;;2.40;86.50;;;;;;4969639;28;20057;-71
2024/01/28 06:00:48;;;;;;;0.00;0.00;;;2.30;86.50;;;;;;4973607;28;20065;-71
2024/01/28 06:03:14;;;;;;;0.10;0.10;;;2.30;86.50;;;;;;4952153;28;20055;-71
2024/01/28 06:05:41;;;;;;;0.10;0.10;;;2.30;86.30;;;;;;4964197;28;20050;-71
2024/01/28 06:08:07;;;;;;;0.20;0.20;;;2.30;86.40;;;;;;4969093;28;20055;-71
2024/01/28 06:10:33;;;;;;;0.10;0.10;;;2.20;86.30;;;;;;4968973;28;20061;-72
2024/01/28 06:12:59;;;;;;;0.20;0.20;;;2.20;86.10;;;;;;4969677;28;20059;-72
2024/01/28 06:15:25;;;;;;;0.10;0.10;;;2.20;86.30;;;;;;4970397;28;20110;-71
2024/01/28 06:17:51;;;;;;;0.28;0.28;;;2.20;86.40;;;;;;4970166;28;20051;-71
2024/01/28 06:20:25;;;;;;;0.00;0.00;;;2.20;86.40;;;;;;4955631;28;20049;-72
2024/01/28 06:22:54;;;;;;;0.10;0.10;;;2.20;86.40;;;;;;4955779;28;20054;-72
2024/01/28 06:25:21;;;;;;;0.00;0.00;;;2.10;86.30;;;;;;4953830;28;20049;-70
2024/01/28 06:27:47;;;;;;;0.10;0.10;;;2.10;86.40;;;;;;4970489;28;20385;-72
2024/01/28 06:30:13;;;;;;;0.30;0.30;;;2.20;86.40;;;;;;4955210;28;20049;-72
2024/01/28 06:32:38;;;;;;;0.00;0.00;;;2.10;86.40;;;;;;4967162;28;20051;-72
2024/01/28 06:35:07;;;;;;;0.10;0.10;;;2.20;86.40;;;;;;4968561;28;20738;-72
2024/01/28 06:37:32;;;;;;;0.10;0.10;;;2.20;86.40;;;;;;4968601;28;20561;-72
2024/01/28 06:39:58;;;;;;;0.10;0.10;;;2.20;86.50;;;;;;4956652;28;20047;-72
2024/01/28 06:42:25;;;;;;;0.00;0.00;;;2.10;86.40;;;;;;4964631;28;20039;-72
2024/01/28 06:44:50;;;;;;;0.50;0.50;;;2.10;86.30;;;;;;4966724;28;20085;-72
2024/01/28 06:47:16;;;;;;;0.00;0.00;;;1.90;86.10;;;;;;4966324;28;20176;-72
2024/01/28 06:49:42;;;;;;;0.45;0.45;;;1.90;86.30;;;;;;4968999;28;20059;-71
2024/01/28 06:52:08;;;;;;;0.00;0.00;;;1.90;86.40;;;;;;4967772;28;20055;-71
2024/01/28 06:54:34;;;;;;;0.00;0.00;;;1.90;86.40;;;;;;4952692;28;20156;-71
2024/01/28 06:56:59;;;;;;;0.93;0.93;;;1.90;86.50;;;;;;4960286;28;20039;-71
2024/01/28 06:59:25;;;;;;;0.10;0.10;;;2.00;86.50;;;;;;4961046;28;20055;-72
2024/01/28 07:01:51;;;;;;;0.10;0.10;;;2.00;86.60;;;;;;4958763;28;20098;-70
2024/01/28 07:04:17;;;;;;;0.00;0.00;;;1.90;86.40;;;;;;4965624;28;20042;-72
2024/01/28 07:06:43;;;;;;;0.00;0.00;;;1.90;86.20;;;;;;4962551;28;20039;-70
2024/01/28 07:09:09;;;;;;;0.08;0.08;;;1.80;86.50;;;;;;4965644;28;20050;-72
2024/01/28 07:11:35;;;;;;;0.10;0.10;;;1.80;86.50;;;;;;4960176;28;20059;-72
2024/01/28 07:14:00;;;;;;;0.40;0.40;;;1.80;86.50;;;;;;4985547;28;20054;-73
2024/01/28 07:16:26;;;;;;;0.00;0.00;;;1.70;86.50;;;;;;4958628;28;20555;-73
2024/01/28 07:18:52;;;;;;;0.00;0.00;;;1.70;86.70;;;;;;4967006;28;20051;-72
2024/01/28 07:21:18;;;;;;;0.10;0.10;;;1.80;86.70;;;;;;4967023;28;20047;-72
2024/01/28 07:23:43;;;;;;;0.00;0.00;;;1.90;86.80;;;;;;4973988;28;20039;-71
2024/01/28 07:26:09;;;;;;;0.00;0.00;;;1.90;86.90;;;;;;4965886;28;20102;-72
2024/01/28 07:28:35;;;;;;;0.10;0.10;;;1.90;86.90;;;;;;4966453;28;20475;-72
2024/01/28 07:31:01;;;;;;;0.00;0.00;;;1.90;86.90;;;;;;4967637;28;20419;-72
2024/01/28 07:33:27;;;;;;;0.35;0.35;;;1.90;86.80;;;;;;4958675;28;20045;-71
2024/01/28 07:35:53;;;;;;;0.10;0.10;;;1.90;86.80;;;;;;4958333;28;20412;-72
2024/01/28 07:38:18;;;;;;;0.13;0.13;;;1.90;86.80;;;;;;4966135;28;20038;-71
2024/01/28 07:40:46;;;;;;;1.95;1.00;;;1.90;86.80;;;;;;4961322;28;20049;-71
2024/01/28 07:43:12;;;;;;;0.10;0.10;;;1.90;86.70;;;;;;4958504;28;20046;-71
2024/01/28 07:45:37;;;;;;;0.10;0.10;;;1.90;86.80;;;;;;4969902;28;20055;-72
2024/01/28 07:48:04;;;;;;;0.10;0.10;;;1.90;86.80;;;;;;4970291;28;20077;-72
2024/01/28 07:50:29;;;;;;;0.08;0.08;;;1.80;86.80;;;;;;4971262;28;20853;-72
2024/01/28 07:52:55;;;;;;;0.20;0.20;;;1.80;86.80;;;;;;4974265;28;20129;-72
2024/01/28 07:55:21;;;;;;;0.10;0.10;;;1.80;86.90;;;;;;4969959;28;20416;-72
2024/01/28 07:57:47;;;;;;;0.40;0.40;;;1.90;86.90;;;;;;4970144;28;20039;-72
2024/01/28 08:00:13;;;;;;;0.10;0.10;;;1.90;87.00;;;;;;4969419;28;20050;-71
2024/01/28 08:02:38;;;;;;;0.10;0.10;;;1.90;86.90;;;;;;4957882;28;20503;-71
2024/01/28 08:05:04;;;;;;;0.10;0.10;;;1.90;86.80;;;;;;4957119;28;20079;-71
2024/01/28 08:07:30;;;;;;;0.00;0.00;;;2.00;86.80;;;;;;4962460;28;20788;-72
2024/01/28 08:09:56;;;;;;;0.10;0.10;;;2.00;86.80;;;;;;4961207;28;20109;-71
2024/01/28 08:12:21;;;;;;;0.00;0.00;;;2.00;86.90;;;;;;4959172;28;20128;-70
2024/01/28 08:14:47;;;;;;;0.77;0.75;;;2.00;86.90;;;;;;4959182;28;20074;-71
2024/01/28 08:17:13;;;;;;;0.10;0.10;;;2.10;86.90;;;;;;4958366;28;20057;-71
2024/01/28 08:19:38;;;;;;;0.03;0.03;;;2.10;86.90;;;;;;4961880;28;20058;-71
2024/01/28 08:22:04;;;;;;;0.03;0.03;;;2.00;86.90;;;;;;4963842;28;20050;-71
2024/01/28 08:24:30;;;;;;;1.15;1.08;;;2.00;86.80;;;;;;4965937;28;20078;-71
2024/01/28 08:26:56;;;;;;;0.20;0.20;;;2.10;86.90;;;;;;4966846;28;20097;-71
2024/01/28 08:29:23;;;;;;;0.00;0.00;;;2.10;87.00;;;;;;4973857;28;20068;-71
2024/01/28 08:31:49;;;;;;;0.63;0.45;;;2.10;86.90;;;;;;4960801;28;20043;-70
2024/01/28 08:34:14;;;;;;;0.10;0.10;;;2.20;86.90;;;;;;4963051;28;20097;-70
2024/01/28 08:36:40;;;;;;;0.00;0.00;;;2.20;87.00;;;;;;4976609;28;20122;-71
2024/01/28 08:39:06;;;;;;;0.30;0.30;;;2.20;87.00;;;;;;4969109;28;20043;-70
2024/01/28 08:41:31;;;;;;;0.08;0.08;;;2.30;86.90;;;;;;4962986;28;20054;-71
2024/01/28 08:43:57;;;;;;;0.00;0.00;;;2.30;86.90;;;;;;4965299;28;20047;-71
2024/01/28 08:46:23;;;;;;;0.00;0.00;;;2.30;86.60;;;;;;4973728;28;20530;-71
2024/01/28 08:48:48;;;;;;;4.20;3.47;;;2.40;86.80;;;;;;4963784;28;20057;-70
2024/01/28 08:51:14;;;;;;;0.00;0.00;;;2.40;86.70;;;;;;4964587;28;20731;-70
2024/01/28 08:53:42;;;;;;;0.10;0.10;;;2.50;86.80;;;;;;4963414;28;20440;-71
2024/01/28 08:56:07;;;;;;;0.38;0.38;;;2.50;86.70;;;;;;4956121;28;20054;-71
2024/01/28 08:58:33;;;;;;;0.10;0.10;;;2.50;86.60;;;;;;4965114;28;20045;-72
2024/01/28 09:00:59;;;;;;;0.00;0.00;;;2.60;86.60;;;;;;4956771;28;20126;-72
2024/01/28 09:03:24;;;;;;;0.00;0.00;;;2.60;86.40;;;;;;4965865;28;20097;-72
2024/01/28 09:05:50;;;;;;;0.03;0.03;;;2.60;86.30;;;;;;4963406;28;20199;-72
2024/01/28 09:08:16;;;;;;;0.10;0.10;;;2.60;86.10;;;;;;4960696;28;20057;-71
2024/01/28 09:10:42;;;;;;;0.90;0.90;;;2.70;86.20;;;;;;4968484;28;20046;-72
2024/01/28 09:13:07;;;;;;;0.10;0.10;;;2.70;85.70;;;;;;4966355;28;20059;-72
2024/01/28 09:15:33;;;;;;;0.00;0.00;;;2.70;85.80;;;;;;4957696;28;20051;-71
2024/01/28 09:17:59;;;;;;;0.10;0.10;;;2.70;85.80;;;;;;4957860;28;20042;-72
2024/01/28 09:20:25;;;;;;;0.95;0.95;;;2.70;85.70;;;;;;4957564;28;20039;-71
2024/01/28 09:22:50;;;;;;;0.10;0.10;;;2.70;85.50;;;;;;4968062;28;20050;-71
2024/01/28 09:25:16;;;;;;;0.40;0.40;;;2.80;85.30;;;;;;4967334;28;20046;-71
2024/01/28 09:27:45;;;;;;;0.00;0.00;;;2.70;85.30;;;;;;4966800;28;20754;-71
2024/01/28 09:30:11;;;;;;;0.00;0.00;;;2.80;85.30;;;;;;4957848;28;20082;-71
2024/01/28 09:32:37;;;;;;;0.05;0.05;;;2.90;85.30;;;;;;4954233;28;20121;-71
2024/01/28 09:35:02;;;;;;;0.00;0.00;;;2.90;85.30;;;;;;4957719;28;20611;-71
2024/01/28 09:37:29;;;;;;;0.17;0.17;;;2.90;85.20;;;;;;4960324;28;20105;-71
2024/01/28 09:39:55;;;;;;;0.10;0.10;;;2.90;85.10;;;;;;4953423;28;20489;-71
2024/01/28 09:42:30;;;;;;;0.00;0.00;;;3.00;85.20;;;;;;4959212;28;20094;-71
2024/01/28 09:44:58;;;;;;;0.00;0.00;;;3.10;85.10;;;;;;4965126;28;20530;-71
2024/01/28 09:47:25;;;;;;;0.32;0.32;;;3.10;84.90;;;;;;4960943;28;20074;-71
2024/01/28 09:49:51;;;;;;;0.00;0.00;;;3.10;84.60;;;;;;4969358;28;20061;-71
2024/01/28 09:52:17;;;;;;;0.13;0.13;;;3.20;84.70;;;;;;4968201;28;20035;-71
2024/01/28 09:54:46;;;;;;;0.30;0.30;;;3.30;84.60;;;;;;4968279;28;20051;-71
2024/01/28 09:57:12;;;;;;;0.10;0.10;;;3.30;84.30;;;;;;4970689;28;20105;-71
2024/01/28 09:59:38;;;;;;;0.10;0.10;;;3.30;83.80;;;;;;4983015;28;20054;-72
2024/01/28 10:02:05;;;;;;;0.10;0.10;;;3.40;83.70;;;;;;4987391;28;20442;-71
2024/01/28 10:04:32;;;;;;;0.00;0.00;;;3.40;83.60;;;;;;4967716;28;20049;-71
2024/01/28 10:07:00;;;;;;;0.00;0.00;;;3.50;83.60;;;;;;4970775;28;20757;-71
2024/01/28 10:09:34;;;;;;;1.65;1.55;;;3.50;83.80;;;;;;4963343;28;20043;-71
2024/01/28 10:12:02;;;;;;;0.00;0.00;;;3.60;83.80;;;;;;4968547;28;20522;-71
2024/01/28 10:14:28;;;;;;;0.75;0.75;;;3.60;83.70;;;;;;4968229;28;20047;-71
2024/01/28 10:16:56;;;;;;;0.17;0.17;;;3.70;83.60;;;;;;4967116;28;20097;-71
2024/01/28 10:19:22;;;;;;;0.80;0.80;;;3.70;83.60;;;;;;4971707;28;20538;-71
2024/01/28 10:21:48;;;;;;;0.00;0.00;;;3.80;83.70;;;;;;4970509;28;20059;-71
2024/01/28 10:24:16;;;;;;;0.30;0.30;;;3.90;83.40;;;;;;4977984;28;20062;-69
2024/01/28 10:26:42;;;;;;;0.20;0.20;;;4.00;83.30;;;;;;4972666;28;20057;-69
2024/01/28 10:29:09;;;;;;;0.00;0.00;;;4.00;83.20;;;;;;4968537;28;20058;-69
2024/01/28 10:31:36;;;;;;;0.00;0.00;;;4.10;83.10;;;;;;4967845;28;20412;-70
2024/01/28 10:34:02;;;;;;;0.00;0.00;;;4.10;83.00;;;;;;4978172;28;20042;-69
2024/01/28 10:36:31;;;;;;;0.00;0.00;;;4.20;83.10;;;;;;4972397;28;20046;-70
2024/01/28 10:39:03;;;;;;;0.10;0.10;;;4.20;82.80;;;;;;4967580;28;20058;-69
2024/01/28 10:41:29;;;;;;;;;;;4.30;82.90;;;;;;4970691;28;20039;-70
2024/01/28 10:44:02;;;;;;;3.03;1.08;;;4.30;82.90;;;;;;4967781;28;20390;-70
2024/01/28 10:46:37;;;;;;;0.10;0.10;;;4.40;82.80;;;;;;4958653;28;20201;-70
2024/01/28 10:49:05;;;;;;;9.93;2.83;;;4.50;82.70;;;;;;4965588;28;20042;-70
2024/01/28 10:51:38;;;;;;;0.00;0.00;;;4.50;82.20;;;;;;4969862;28;20133;-70
2024/01/28 10:54:07;;;;;;;0.20;0.20;;;4.50;82.00;;;;;;4967258;28;20484;-69
2024/01/28 10:56:37;;;;;;;0.10;0.10;;;4.60;82.00;;;;;;4986125;28;20411;-69
2024/01/28 10:59:02;;;;;;;0.00;0.00;;;4.60;82.20;;;;;;4979622;28;20747;-69
2024/01/28 11:01:30;;;;;;;0.00;0.00;;;4.70;82.20;;;;;;4965319;28;20031;-70
2024/01/28 11:03:57;;;;;;;0.00;0.00;;;4.80;82.30;;;;;;4983084;28;20054;-70
2024/01/28 11:06:26;;;;;;;0.00;0.00;;;5.00;82.60;;;;;;4970985;28;20062;-70
2024/01/28 11:08:55;;;;;;;0.17;0.17;;;5.00;82.50;;;;;;4964785;28;20133;-70
2024/01/28 11:11:22;;;;;;;2.75;2.53;;;5.00;82.10;;;;;;4967813;28;20069;-69
2024/01/28 11:13:48;;;;;;;0.10;0.10;;;5.00;81.50;;;;;;4970368;28;20082;-69
2024/01/28 11:16:18;;;;;;;0.10;0.10;;;5.10;81.40;;;;;;4964339;28;20086;-69
2024/01/28 11:18:58;;;;;;;0.80;0.57;;;5.10;81.40;;;;;;4973569;28;20507;-70
2024/01/28 11:21:26;;;;;;;0.00;0.00;;;6.20;88.90;;;;;;4969826;28;20042;-70
2024/01/28 11:23:56;;;;;;;4.57;1.55;;;6.20;85.20;;;;;;4969038;28;20038;-71
2024/01/28 11:26:25;;;;;;;0.13;0.13;;;6.00;82.60;;;;;;4966071;28;20879;-70
2024/01/28 11:28:53;;;;;;;0.10;0.10;;;5.90;81.50;;;;;;4967463;28;20092;-71
2024/01/28 11:31:40;;;;;;;0.10;0.10;;;5.80;80.40;;;;;;4969182;28;20059;-71
2024/01/28 11:34:12;;;;;;;0.10;0.10;;;5.80;80.30;;;;;;4971492;28;20447;-70
2024/01/28 11:36:40;;;;;;;;;;;5.70;79.40;;;;;;4967626;28;20051;-70
2024/01/28 11:39:14;;;;;;;0.20;0.20;;;5.70;78.30;;;;;;4967998;28;19930;-70
2024/01/28 11:41:42;;;;;;;0.00;0.00;;;5.60;78.80;;;;;;4971563;28;20047;-70
2024/01/28 11:44:08;;;;;;;0.10;0.10;;;5.60;79.10;;;;;;4973274;28;20051;-70
2024/01/28 11:46:38;;;;;;;0.00;0.00;;;5.70;79.30;;;;;;4975653;28;20496;-70
2024/01/28 11:49:08;;;;;;;0.10;0.10;;;5.70;79.20;;;;;;4962290;28;20074;-70
2024/01/28 11:51:34;;;;;;;0.00;0.00;;;5.70;79.10;;;;;;4952639;28;20058;-70
2024/01/28 11:54:01;;;;;;;0.10;0.10;;;5.70;78.60;;;;;;4968924;28;20081;-70
2024/01/28 11:56:34;;;;;;;0.00;0.00;;;5.70;78.10;;;;;;4970446;28;20038;-70
2024/01/28 11:59:01;;;;;;;2.50;1.85;;;5.80;78.10;;;;;;4965151;28;20046;-70
2024/01/28 12:01:27;;;;;;;0.00;0.00;;;5.80;78.10;;;;;;4969661;28;20065;-72
2024/01/28 12:03:56;;;;;;;0.70;0.70;;;6.20;80.60;;;;;;4986439;28;20444;-70
2024/01/28 12:06:23;;;;;;;0.28;0.28;;;6.10;77.80;;;;;;4990428;28;20082;-70
2024/01/28 12:08:49;;;;;;;0.30;0.30;;;6.10;78.50;;;;;;4990528;28;20042;-70
2024/01/28 12:11:23;;;;;;;0.55;0.45;;;6.10;77.70;;;;;;4974600;28;20131;-70
2024/01/28 12:13:51;;;;;;;0.20;0.20;;;6.20;77.30;;;;;;4965543;28;20503;-70
2024/01/28 12:16:21;;;;;;;0.38;0.38;;;6.20;77.80;;;;;;4970735;28;20522;-70
2024/01/28 12:18:48;;;;;;;0.05;0.05;;;6.30;76.60;;;;;;4970497;28;20523;-70
2024/01/28 12:21:21;;;;;;;0.20;0.20;;;6.30;76.90;;;;;;4974842;28;20439;-71
2024/01/28 12:23:59;;;;;;;0.13;0.13;;;6.30;76.70;;;;;;4989493;28;20080;-70
2024/01/28 12:26:34;;;;;;;0.10;0.10;;;6.30;77.40;;;;;;4969783;28;20520;-70
2024/01/28 12:29:01;;;;;;;0.10;0.10;;;6.40;76.60;;;;;;4969161;28;20066;-69
2024/01/28 12:31:27;;;;;;;0.00;0.00;;;6.80;82.60;;;;;;4976316;28;20129;-71
2024/01/28 12:33:53;;;;;;;0.00;0.00;;;8.00;84.40;;;;;;4967040;28;20054;-70
2024/01/28 12:36:19;;;;;;;0.00;0.00;;;8.70;80.90;;;;;;4967260;28;20145;-69
2024/01/28 12:38:45;;;;;;;0.10;0.10;;;8.60;74.80;;;;;;4962150;28;20126;-68
2024/01/28 12:41:11;;;;;;;0.00;0.00;;;8.30;75.00;;;;;;4966786;28;20049;-68
2024/01/28 12:43:39;;;;;;;0.00;0.00;;;8.10;75.50;;;;;;4962175;28;20105;-68
2024/01/28 12:46:05;;;;;;;0.00;0.00;;;7.80;74.80;;;;;;4967461;28;20105;-69
2024/01/28 12:48:31;;;;;;;0.00;0.00;;;7.70;75.70;;;;;;4985220;28;20034;-69
2024/01/28 12:50:57;;;;;;;0.00;0.00;;;7.60;76.20;;;;;;4974695;28;20047;-69
2024/01/28 12:53:23;;;;;;;0.00;0.00;;;7.40;76.00;;;;;;4976433;28;20042;-69
2024/01/28 12:55:49;;;;;;;0.25;0.25;;;7.30;74.70;;;;;;4976101;28;20405;-69
2024/01/28 12:58:14;;;;;;;0.00;0.00;;;7.30;75.00;;;;;;4974883;28;20423;-69
2024/01/28 13:00:40;;;;;;;0.00;0.00;;;7.20;75.20;;;;;;4976915;28;20078;-69
2024/01/28 13:03:07;;;;;;;0.45;0.45;;;7.20;76.00;;;;;;4973983;28;20050;-68
2024/01/28 13:05:32;;;;;;;0.10;0.10;;;7.20;75.20;;;;;;4990685;28;20907;-69
2024/01/28 13:07:58;;;;;;;0.05;0.05;;;7.10;74.80;;;;;;4970261;28;20072;-71
2024/01/28 13:10:24;;;;;;;0.55;0.55;;;7.10;75.80;;;;;;4966429;28;20146;-69